aviador You're here:

KTPA Decoded Metar

TAMPA in FL, USA
Report Time2018-02-17 22:53:00
UTC Time2018-02-17 23:42:14
Flight Rules vfr VFR
Wind260° at 08 kt
W.Decomp.*RWY 28: 7.7 kt HW 2.1 kt LCW
RWY 19: 2.1 kt HW 7.7 kt RCW
W.Rank260° ranks 7
Current wind is above 260° avg. (7.9)
Visibility9999 m
Phenomena:N/A
Clouds:N/A
Expected CloudBase > 4,000 ft AGL from Temp-Dew spread
CeilingNone
Temp25°C (ISA +10)
Dew Point15°C (54% RH)
AAT23.7°C
QNH1023 hPa
Density Alt1,096 ft
Elevation36 ft
Report Wrong Elevation
Raw Report
METAR KTPA 172253Z 26008KT 10SM CLR 25/15 A3021 RMK AO2 SLP229 T02500150=

Extra information for KTPA:More info

Metar Taf Metar & Taf Last 4 Metars F.Rules Stats Wind Profile Meteogram Temp Stats Airport Information Weather charts Add Link Nearby VenuesMetar ALERT Operation Metar Decoded Social comments

AIRNAV info for KTPA